ENT1HB EPKT-LEPA
Flight info
| Callsign | ENT1HB |
|---|---|
| Flight time | 2h 34m |
| Altitude | 34000 |
| Route | TUSIN DCT UPLAV DCT MIKOV DCT DETSA/N0446F350 DCT BAKOR DCT GEKBA/N0428F290 DCT VAMTU DCT KOLON DCT GANGU DCT PADKO DCT VATIR N852 VERSO L129 LUNIK |
| Aircraft | B738/M-SDFGHIJ1RWXY/EB1 |
Departure
| Time | 2026-05-04 11:41 |
|---|---|
| Airport | Katowice Wojciech Korfanty International Airport (EPKT) |
Arrival
| Time | 2026-05-04 14:15 |
|---|---|
| Airport | Palma de Mallorca Airport (LEPA) |
| Time | Latitude | Longitude | Altitude | Speed | Heading |
|---|---|---|---|---|---|
| 2026-05-04 11:14 | 50.47148 | 19.08247 | 1025 ft | 0 kts | 180° |
| 2026-05-04 11:33 | 50.47152 | 19.08247 | 997 ft | 3 kts | 180° |
| 2026-05-04 11:34 | 50.47179 | 19.08247 | 997 ft | 4 kts | 180° |
| 2026-05-04 11:34 | 50.47202 | 19.08247 | 999 ft | 2 kts | 180° |
| 2026-05-04 11:34 | 50.47224 | 19.08241 | 997 ft | 4 kts | 136° |
| 2026-05-04 11:34 | 50.47233 | 19.08210 | 997 ft | 3 kts | 90° |
| 2026-05-04 11:35 | 50.47233 | 19.08173 | 997 ft | 1 kts | 90° |
| 2026-05-04 11:37 | 50.47233 | 19.08183 | 1003 ft | 4 kts | 90° |
| 2026-05-04 11:38 | 50.47233 | 19.08294 | 1003 ft | 16 kts | 90° |
| 2026-05-04 11:38 | 50.47232 | 19.08485 | 1001 ft | 20 kts | 90° |
| 2026-05-04 11:38 | 50.47232 | 19.08746 | 1003 ft | 28 kts | 90° |
| 2026-05-04 11:38 | 50.47231 | 19.09072 | 999 ft | 30 kts | 90° |
| 2026-05-04 11:39 | 50.47230 | 19.09390 | 999 ft | 28 kts | 90° |
| 2026-05-04 11:39 | 50.47229 | 19.09690 | 1003 ft | 27 kts | 90° |
| 2026-05-04 11:40 | 50.47594 | 19.10306 | 1001 ft | 16 kts | 270° |
| 2026-05-04 11:41 | 50.47594 | 19.09752 | 1002 ft | 85 kts | 270° |
| 2026-05-04 11:41 | 50.47597 | 19.08491 | 999 ft | 144 kts | 270° |
| 2026-05-04 11:41 | 50.47615 | 19.06773 | 1409 ft | 161 kts | 267° |
| 2026-05-04 11:41 | 50.47625 | 19.04986 | 2172 ft | 167 kts | 266° |
| 2026-05-04 11:42 | 50.47625 | 19.03165 | 3058 ft | 166 kts | 264° |
| 2026-05-04 11:42 | 50.47598 | 19.01289 | 3815 ft | 175 kts | 260° |
| 2026-05-04 11:42 | 50.47039 | 18.99717 | 4773 ft | 174 kts | 216° |
| 2026-05-04 11:42 | 50.45879 | 18.98815 | 5139 ft | 197 kts | 205° |
| 2026-05-04 11:43 | 50.44553 | 18.97959 | 5621 ft | 213 kts | 204° |
| 2026-05-04 11:43 | 50.43164 | 18.97055 | 6051 ft | 225 kts | 204° |
| 2026-05-04 11:43 | 50.41696 | 18.96073 | 6579 ft | 235 kts | 205° |
| 2026-05-04 11:43 | 50.40120 | 18.95002 | 6899 ft | 259 kts | 205° |
| 2026-05-04 11:44 | 50.38440 | 18.93863 | 7629 ft | 263 kts | 204° |
| 2026-05-04 11:44 | 50.36767 | 18.92722 | 8586 ft | 264 kts | 204° |
| 2026-05-04 11:44 | 50.35071 | 18.91562 | 9374 ft | 268 kts | 204° |
| 2026-05-04 11:44 | 50.33357 | 18.90392 | 10244 ft | 269 kts | 204° |
| 2026-05-04 11:45 | 50.31617 | 18.89191 | 10861 ft | 280 kts | 204° |
| 2026-05-04 11:45 | 50.29754 | 18.87904 | 11029 ft | 306 kts | 204° |
| 2026-05-04 11:45 | 50.27718 | 18.86520 | 11209 ft | 329 kts | 204° |
| 2026-05-04 11:45 | 50.25583 | 18.85059 | 11720 ft | 340 kts | 204° |
| 2026-05-04 11:46 | 50.23400 | 18.83562 | 12457 ft | 344 kts | 205° |
| 2026-05-04 11:46 | 50.21235 | 18.82079 | 13231 ft | 346 kts | 205° |
| 2026-05-04 11:46 | 50.19016 | 18.80560 | 13922 ft | 351 kts | 205° |
| 2026-05-04 11:46 | 50.16762 | 18.79018 | 14581 ft | 354 kts | 205° |
| 2026-05-04 11:47 | 50.14487 | 18.77471 | 15239 ft | 358 kts | 205° |
| 2026-05-04 11:47 | 50.12188 | 18.75906 | 15882 ft | 362 kts | 205° |
| 2026-05-04 11:47 | 50.09869 | 18.74329 | 16506 ft | 365 kts | 205° |
| 2026-05-04 11:47 | 50.07553 | 18.72754 | 17088 ft | 369 kts | 205° |
| 2026-05-04 11:48 | 50.05190 | 18.71145 | 17708 ft | 372 kts | 205° |
| 2026-05-04 11:48 | 50.02804 | 18.69527 | 18312 ft | 376 kts | 205° |
| 2026-05-04 11:48 | 50.00383 | 18.67889 | 18818 ft | 380 kts | 205° |
| 2026-05-04 11:48 | 49.97948 | 18.66243 | 19327 ft | 384 kts | 205° |
| 2026-05-04 11:49 | 49.95489 | 18.64578 | 19858 ft | 387 kts | 205° |
| 2026-05-04 11:49 | 49.93014 | 18.62903 | 20369 ft | 390 kts | 205° |
| 2026-05-04 11:49 | 49.90514 | 18.61215 | 20895 ft | 393 kts | 205° |
| 2026-05-04 11:49 | 49.87993 | 18.59498 | 21361 ft | 397 kts | 207° |
| 2026-05-04 11:50 | 49.85615 | 18.57314 | 21813 ft | 398 kts | 217° |
| 2026-05-04 11:50 | 49.83480 | 18.54568 | 22335 ft | 400 kts | 224° |
| 2026-05-04 11:50 | 49.81628 | 18.51317 | 22768 ft | 404 kts | 232° |
| 2026-05-04 11:50 | 49.79917 | 18.47848 | 23211 ft | 407 kts | 233° |
| 2026-05-04 11:51 | 49.78214 | 18.44337 | 23683 ft | 409 kts | 233° |
| 2026-05-04 11:51 | 49.76494 | 18.40791 | 24083 ft | 411 kts | 233° |
| 2026-05-04 11:51 | 49.74768 | 18.37253 | 24500 ft | 413 kts | 233° |
| 2026-05-04 11:51 | 49.73045 | 18.33743 | 24786 ft | 417 kts | 233° |
| 2026-05-04 11:52 | 49.71283 | 18.30176 | 25271 ft | 416 kts | 233° |
| 2026-05-04 11:52 | 49.69517 | 18.26613 | 25592 ft | 419 kts | 233° |
| 2026-05-04 11:52 | 49.67728 | 18.23014 | 25899 ft | 423 kts | 233° |
| 2026-05-04 11:52 | 49.65938 | 18.19423 | 26342 ft | 423 kts | 233° |
| 2026-05-04 11:53 | 49.64136 | 18.15814 | 26697 ft | 424 kts | 233° |
| 2026-05-04 11:53 | 49.62326 | 18.12192 | 26973 ft | 428 kts | 233° |
| 2026-05-04 11:53 | 49.60495 | 18.08534 | 27275 ft | 431 kts | 233° |
| 2026-05-04 11:53 | 49.58682 | 18.04916 | 27679 ft | 431 kts | 233° |
| 2026-05-04 11:55 | 49.45695 | 17.79137 | 30065 ft | 439 kts | 234° |
| 2026-05-04 11:55 | 49.43820 | 17.75436 | 30407 ft | 439 kts | 234° |
| 2026-05-04 11:56 | 49.41939 | 17.71728 | 30663 ft | 440 kts | 233° |
| 2026-05-04 11:56 | 49.40058 | 17.68024 | 30987 ft | 439 kts | 233° |
| 2026-05-04 11:56 | 49.38182 | 17.64337 | 31374 ft | 438 kts | 233° |
| 2026-05-04 11:56 | 49.36308 | 17.60655 | 31709 ft | 437 kts | 233° |
| 2026-05-04 11:57 | 49.34437 | 17.56986 | 32043 ft | 436 kts | 233° |
| 2026-05-04 11:57 | 49.32567 | 17.53328 | 32333 ft | 436 kts | 233° |
| 2026-05-04 11:57 | 49.30628 | 17.49749 | 32631 ft | 436 kts | 231° |
| 2026-05-04 11:57 | 49.28615 | 17.46270 | 32908 ft | 437 kts | 230° |
| 2026-05-04 11:58 | 49.26572 | 17.42828 | 33206 ft | 436 kts | 230° |
| 2026-05-04 11:58 | 49.24552 | 17.39445 | 33483 ft | 436 kts | 229° |
| 2026-05-04 11:58 | 49.22504 | 17.36008 | 33767 ft | 436 kts | 229° |
| 2026-05-04 11:58 | 49.20469 | 17.32578 | 34043 ft | 436 kts | 230° |
| 2026-05-04 11:59 | 49.18440 | 17.29143 | 34288 ft | 435 kts | 230° |
| 2026-05-04 11:59 | 49.16413 | 17.25708 | 34543 ft | 434 kts | 230° |
| 2026-05-04 11:59 | 49.14394 | 17.22282 | 34811 ft | 433 kts | 230° |
| 2026-05-04 11:59 | 49.12382 | 17.18872 | 35080 ft | 432 kts | 230° |
| 2026-05-04 12:00 | 49.10378 | 17.15477 | 35377 ft | 430 kts | 230° |
| 2026-05-04 12:00 | 49.08376 | 17.12094 | 35594 ft | 430 kts | 230° |
| 2026-05-04 12:00 | 49.06365 | 17.08696 | 35779 ft | 430 kts | 230° |
| 2026-05-04 12:00 | 49.04361 | 17.05318 | 35992 ft | 429 kts | 230° |
| 2026-05-04 12:01 | 49.02365 | 17.01958 | 36003 ft | 427 kts | 230° |
| 2026-05-04 12:02 | 48.88198 | 16.78227 | 36019 ft | 437 kts | 229° |
| 2026-05-04 12:03 | 48.84126 | 16.71445 | 36009 ft | 430 kts | 229° |
| 2026-05-04 12:03 | 48.80109 | 16.64771 | 36015 ft | 427 kts | 229° |
| 2026-05-04 12:04 | 48.76531 | 16.57705 | 36026 ft | 424 kts | 238° |
| 2026-05-04 12:04 | 48.73379 | 16.50157 | 36014 ft | 424 kts | 239° |
| 2026-05-04 12:05 | 48.70217 | 16.42582 | 36008 ft | 425 kts | 239° |
| 2026-05-04 12:05 | 48.67028 | 16.35026 | 36009 ft | 427 kts | 239° |
| 2026-05-04 12:06 | 48.63806 | 16.27454 | 36005 ft | 429 kts | 238° |
| 2026-05-04 12:06 | 48.60565 | 16.19867 | 36007 ft | 430 kts | 238° |
| 2026-05-04 12:07 | 48.57313 | 16.12277 | 36000 ft | 431 kts | 238° |
| 2026-05-04 12:07 | 48.54068 | 16.04726 | 35992 ft | 431 kts | 238° |
| 2026-05-04 12:08 | 48.50794 | 15.97128 | 35986 ft | 431 kts | 238° |
| 2026-05-04 12:08 | 48.47522 | 15.89555 | 35997 ft | 430 kts | 238° |
| 2026-05-04 12:09 | 48.44251 | 15.82005 | 35991 ft | 429 kts | 238° |
| 2026-05-04 12:09 | 48.40992 | 15.74504 | 35991 ft | 427 kts | 238° |
| 2026-05-04 12:10 | 48.37760 | 15.67087 | 35996 ft | 426 kts | 238° |
| 2026-05-04 12:10 | 48.34504 | 15.59633 | 35988 ft | 425 kts | 238° |
| 2026-05-04 12:11 | 48.31252 | 15.52210 | 35983 ft | 424 kts | 238° |
| 2026-05-04 12:11 | 48.27998 | 15.44803 | 35990 ft | 424 kts | 238° |
| 2026-05-04 12:12 | 48.24752 | 15.37432 | 35993 ft | 423 kts | 238° |
| 2026-05-04 12:12 | 48.21513 | 15.30098 | 35986 ft | 424 kts | 238° |
| 2026-05-04 12:14 | 48.08416 | 15.00645 | 35984 ft | 425 kts | 238° |
| 2026-05-04 12:15 | 48.05139 | 14.93328 | 35987 ft | 426 kts | 238° |
| 2026-05-04 12:15 | 48.01843 | 14.85984 | 35986 ft | 426 kts | 238° |
| 2026-05-04 12:16 | 47.98533 | 14.78632 | 35982 ft | 427 kts | 238° |
| 2026-05-04 12:16 | 47.95218 | 14.71286 | 35978 ft | 427 kts | 237° |
| 2026-05-04 12:17 | 47.91891 | 14.63934 | 35991 ft | 427 kts | 237° |
| 2026-05-04 12:17 | 47.88585 | 14.56649 | 35985 ft | 427 kts | 237° |
| 2026-05-04 12:18 | 47.85234 | 14.49284 | 35988 ft | 427 kts | 237° |
| 2026-05-04 12:18 | 47.81922 | 14.42024 | 35987 ft | 426 kts | 237° |
| 2026-05-04 12:19 | 47.78592 | 14.34745 | 35975 ft | 426 kts | 237° |
| 2026-05-04 12:19 | 47.75255 | 14.27469 | 35975 ft | 425 kts | 237° |
| 2026-05-04 12:20 | 47.71928 | 14.20234 | 35983 ft | 424 kts | 237° |
| 2026-05-04 12:20 | 47.68594 | 14.13003 | 35989 ft | 423 kts | 237° |
| 2026-05-04 12:21 | 47.65258 | 14.05789 | 35987 ft | 423 kts | 237° |
| 2026-05-04 12:21 | 47.61941 | 13.98632 | 35988 ft | 423 kts | 237° |
| 2026-05-04 12:22 | 47.58593 | 13.91428 | 36000 ft | 424 kts | 236° |
| 2026-05-04 12:22 | 47.55243 | 13.84237 | 35990 ft | 425 kts | 236° |
| 2026-05-04 12:23 | 47.51875 | 13.77029 | 35999 ft | 425 kts | 236° |
| 2026-05-04 12:23 | 47.48506 | 13.69836 | 35997 ft | 426 kts | 236° |
| 2026-05-04 12:24 | 47.45697 | 13.63853 | 35995 ft | 426 kts | 236° |
| 2026-05-04 12:24 | 47.41761 | 13.55491 | 35999 ft | 427 kts | 236° |
| 2026-05-04 12:25 | 47.38917 | 13.49466 | 36001 ft | 427 kts | 236° |
| 2026-05-04 12:25 | 47.35512 | 13.42269 | 35994 ft | 427 kts | 236° |
| 2026-05-04 12:26 | 47.32132 | 13.35145 | 35996 ft | 427 kts | 236° |
| 2026-05-04 12:26 | 47.28726 | 13.27983 | 36002 ft | 426 kts | 236° |
| 2026-05-04 12:27 | 47.25322 | 13.20844 | 36017 ft | 426 kts | 235° |
| 2026-05-04 12:27 | 47.21914 | 13.13715 | 36020 ft | 426 kts | 235° |
| 2026-05-04 12:28 | 47.18493 | 13.06577 | 36058 ft | 429 kts | 235° |
| 2026-05-04 12:28 | 47.16806 | 13.03062 | 36304 ft | 427 kts | 235° |
| 2026-05-04 12:28 | 47.15065 | 12.99442 | 36565 ft | 426 kts | 235° |
| 2026-05-04 12:29 | 47.13357 | 12.95895 | 36817 ft | 424 kts | 235° |
| 2026-05-04 12:29 | 47.11657 | 12.92368 | 36991 ft | 423 kts | 235° |
| 2026-05-04 12:29 | 47.08275 | 12.85367 | 37031 ft | 419 kts | 235° |
| 2026-05-04 12:30 | 47.04883 | 12.78360 | 37048 ft | 424 kts | 234° |
| 2026-05-04 12:30 | 47.01448 | 12.71283 | 37052 ft | 428 kts | 234° |
| 2026-05-04 12:31 | 46.97971 | 12.64139 | 37057 ft | 431 kts | 234° |
| 2026-05-04 12:31 | 46.94505 | 12.57036 | 37057 ft | 424 kts | 234° |
| 2026-05-04 12:32 | 46.89422 | 12.46650 | 37086 ft | 418 kts | 234° |
| 2026-05-04 12:33 | 46.86040 | 12.39757 | 37092 ft | 417 kts | 234° |
| 2026-05-04 12:33 | 46.82653 | 12.32874 | 37123 ft | 418 kts | 234° |
| 2026-05-04 12:34 | 46.79424 | 12.25818 | 37133 ft | 418 kts | 242° |
| 2026-05-04 12:34 | 46.76795 | 12.18221 | 37138 ft | 420 kts | 243° |
| 2026-05-04 12:35 | 46.74165 | 12.10571 | 37142 ft | 422 kts | 243° |
| 2026-05-04 12:35 | 46.71520 | 12.02987 | 37113 ft | 423 kts | 243° |
| 2026-05-04 12:36 | 46.68833 | 11.95341 | 37106 ft | 424 kts | 243° |
| 2026-05-04 12:36 | 46.66136 | 11.87695 | 37081 ft | 425 kts | 243° |
| 2026-05-04 12:37 | 46.63436 | 11.80054 | 37061 ft | 425 kts | 243° |
| 2026-05-04 12:37 | 46.60650 | 11.72472 | 37045 ft | 425 kts | 237° |
| 2026-05-04 12:38 | 46.57027 | 11.65695 | 37047 ft | 425 kts | 231° |
| 2026-05-04 12:38 | 46.53290 | 11.59058 | 37064 ft | 424 kts | 231° |
| 2026-05-04 12:39 | 46.49569 | 11.52418 | 37055 ft | 424 kts | 231° |
| 2026-05-04 12:39 | 46.45874 | 11.45792 | 37045 ft | 424 kts | 231° |
| 2026-05-04 12:40 | 46.42164 | 11.39138 | 37054 ft | 423 kts | 231° |
| 2026-05-04 12:40 | 46.38464 | 11.32512 | 37049 ft | 422 kts | 231° |
| 2026-05-04 12:41 | 46.34765 | 11.25905 | 37197 ft | 422 kts | 231° |
| 2026-05-04 12:41 | 46.31064 | 11.19311 | 37218 ft | 421 kts | 231° |
| 2026-05-04 12:42 | 46.27363 | 11.12733 | 37222 ft | 422 kts | 231° |
| 2026-05-04 12:42 | 46.23654 | 11.06155 | 37217 ft | 422 kts | 231° |
| 2026-05-04 12:43 | 46.19948 | 10.99599 | 37204 ft | 421 kts | 231° |
| 2026-05-04 12:43 | 46.16264 | 10.93098 | 37192 ft | 420 kts | 231° |
| 2026-05-04 12:44 | 46.12556 | 10.86572 | 37181 ft | 419 kts | 231° |
| 2026-05-04 12:44 | 46.08856 | 10.80071 | 37167 ft | 420 kts | 231° |
| 2026-05-04 12:45 | 46.05153 | 10.73580 | 37142 ft | 420 kts | 231° |
| 2026-05-04 12:45 | 46.01442 | 10.67091 | 37147 ft | 420 kts | 231° |
| 2026-05-04 12:46 | 45.97722 | 10.60601 | 37143 ft | 420 kts | 231° |
| 2026-05-04 12:46 | 45.94004 | 10.54131 | 37137 ft | 419 kts | 231° |
| 2026-05-04 12:47 | 45.90280 | 10.47665 | 37126 ft | 420 kts | 231° |
| 2026-05-04 12:47 | 45.86551 | 10.41205 | 37125 ft | 421 kts | 231° |
| 2026-05-04 12:48 | 45.82810 | 10.34740 | 37120 ft | 421 kts | 231° |
| 2026-05-04 12:48 | 45.79083 | 10.28315 | 37114 ft | 421 kts | 231° |
| 2026-05-04 12:49 | 45.75331 | 10.21860 | 37093 ft | 421 kts | 231° |
| 2026-05-04 12:49 | 45.71583 | 10.15428 | 37090 ft | 421 kts | 231° |
| 2026-05-04 12:50 | 45.67834 | 10.09007 | 37093 ft | 421 kts | 231° |
| 2026-05-04 12:50 | 45.64093 | 10.02616 | 37096 ft | 421 kts | 231° |
| 2026-05-04 12:51 | 45.60335 | 9.96210 | 37094 ft | 420 kts | 231° |
| 2026-05-04 12:51 | 45.56577 | 9.89819 | 37094 ft | 420 kts | 231° |
| 2026-05-04 12:52 | 45.52818 | 9.83442 | 37095 ft | 419 kts | 231° |
| 2026-05-04 12:52 | 45.49060 | 9.77079 | 37096 ft | 419 kts | 231° |
| 2026-05-04 12:53 | 45.45309 | 9.70744 | 37170 ft | 418 kts | 231° |
| 2026-05-04 12:53 | 45.41552 | 9.64413 | 37175 ft | 418 kts | 231° |
| 2026-05-04 12:54 | 45.37799 | 9.58103 | 37164 ft | 417 kts | 231° |
| 2026-05-04 12:54 | 45.34047 | 9.51808 | 37099 ft | 417 kts | 231° |
| 2026-05-04 12:55 | 45.30290 | 9.45518 | 37100 ft | 417 kts | 231° |
| 2026-05-04 12:55 | 45.26550 | 9.39273 | 37100 ft | 417 kts | 231° |
| 2026-05-04 12:56 | 45.22794 | 9.33014 | 37096 ft | 417 kts | 231° |
| 2026-05-04 12:56 | 45.19030 | 9.26756 | 37101 ft | 416 kts | 231° |
| 2026-05-04 12:57 | 45.15274 | 9.20523 | 37112 ft | 416 kts | 231° |
| 2026-05-04 12:57 | 45.11506 | 9.14287 | 37114 ft | 416 kts | 231° |
| 2026-05-04 12:58 | 45.07747 | 9.08078 | 37121 ft | 415 kts | 231° |
| 2026-05-04 12:58 | 45.04009 | 9.01918 | 37128 ft | 415 kts | 231° |
| 2026-05-04 12:59 | 45.00251 | 8.95738 | 37130 ft | 414 kts | 231° |
| 2026-05-04 12:59 | 44.96496 | 8.89576 | 37129 ft | 414 kts | 231° |
| 2026-05-04 13:00 | 44.92737 | 8.83422 | 37122 ft | 413 kts | 231° |
| 2026-05-04 13:00 | 44.88980 | 8.77285 | 37121 ft | 413 kts | 231° |
| 2026-05-04 13:01 | 44.85222 | 8.71158 | 37113 ft | 412 kts | 231° |
| 2026-05-04 13:01 | 44.81469 | 8.65054 | 37112 ft | 412 kts | 231° |
| 2026-05-04 13:02 | 44.77715 | 8.58960 | 37104 ft | 411 kts | 231° |
| 2026-05-04 13:02 | 44.73963 | 8.52885 | 37101 ft | 411 kts | 231° |
| 2026-05-04 13:03 | 44.70212 | 8.46822 | 37109 ft | 410 kts | 231° |
| 2026-05-04 13:03 | 44.66464 | 8.40778 | 37103 ft | 410 kts | 231° |
| 2026-05-04 13:04 | 44.62743 | 8.34791 | 37103 ft | 409 kts | 231° |
| 2026-05-04 13:04 | 44.58997 | 8.28775 | 37110 ft | 409 kts | 231° |
| 2026-05-04 13:05 | 44.55249 | 8.22770 | 37106 ft | 408 kts | 231° |
| 2026-05-04 13:05 | 44.51511 | 8.16793 | 37106 ft | 407 kts | 231° |
| 2026-05-04 13:06 | 44.47778 | 8.10835 | 37110 ft | 407 kts | 231° |
| 2026-05-04 13:06 | 44.44042 | 8.04887 | 37105 ft | 405 kts | 231° |
| 2026-05-04 13:07 | 44.40323 | 7.98978 | 37114 ft | 404 kts | 231° |
| 2026-05-04 13:07 | 44.36633 | 7.93126 | 37108 ft | 403 kts | 231° |
| 2026-05-04 13:08 | 44.32935 | 7.87272 | 37109 ft | 401 kts | 231° |
| 2026-05-04 13:08 | 44.29238 | 7.81431 | 37106 ft | 401 kts | 231° |
| 2026-05-04 13:09 | 44.25395 | 7.75814 | 37108 ft | 402 kts | 225° |
| 2026-05-04 13:09 | 44.21197 | 7.70665 | 37108 ft | 402 kts | 225° |
| 2026-05-04 13:10 | 44.17009 | 7.65492 | 37097 ft | 402 kts | 224° |
| 2026-05-04 13:10 | 44.13016 | 7.60073 | 37105 ft | 400 kts | 231° |
| 2026-05-04 13:11 | 44.09991 | 7.55195 | 37099 ft | 401 kts | 231° |
| 2026-05-04 13:11 | 44.06340 | 7.49314 | 37092 ft | 402 kts | 231° |
| 2026-05-04 13:12 | 44.02678 | 7.43460 | 37094 ft | 401 kts | 231° |
| 2026-05-04 13:12 | 43.99011 | 7.37620 | 37094 ft | 401 kts | 231° |
| 2026-05-04 13:13 | 43.95330 | 7.31775 | 37080 ft | 402 kts | 231° |
| 2026-05-04 13:13 | 43.91659 | 7.25960 | 37084 ft | 400 kts | 231° |
| 2026-05-04 13:14 | 43.87997 | 7.20165 | 37072 ft | 398 kts | 231° |
| 2026-05-04 13:14 | 43.84357 | 7.14418 | 37074 ft | 396 kts | 231° |
| 2026-05-04 13:15 | 43.80756 | 7.08742 | 37079 ft | 395 kts | 231° |
| 2026-05-04 13:15 | 43.77129 | 7.03034 | 37063 ft | 394 kts | 231° |
| 2026-05-04 13:16 | 43.73533 | 6.97325 | 37070 ft | 392 kts | 234° |
| 2026-05-04 13:16 | 43.70815 | 6.90824 | 37087 ft | 391 kts | 248° |
| 2026-05-04 13:17 | 43.68781 | 6.83819 | 37081 ft | 394 kts | 248° |
| 2026-05-04 13:17 | 43.66731 | 6.76783 | 37081 ft | 395 kts | 248° |
| 2026-05-04 13:18 | 43.64668 | 6.69779 | 37071 ft | 395 kts | 248° |
| 2026-05-04 13:18 | 43.62587 | 6.62761 | 37056 ft | 394 kts | 247° |
| 2026-05-04 13:19 | 43.60514 | 6.55792 | 37058 ft | 392 kts | 247° |
| 2026-05-04 13:19 | 43.58447 | 6.48863 | 37048 ft | 390 kts | 247° |
| 2026-05-04 13:20 | 43.56385 | 6.41967 | 37050 ft | 387 kts | 247° |
| 2026-05-04 13:20 | 43.54332 | 6.35122 | 37053 ft | 385 kts | 247° |
| 2026-05-04 13:21 | 43.52284 | 6.28308 | 37052 ft | 384 kts | 247° |
| 2026-05-04 13:21 | 43.50238 | 6.21522 | 37044 ft | 383 kts | 247° |
| 2026-05-04 13:22 | 43.48193 | 6.14750 | 37045 ft | 383 kts | 247° |
| 2026-05-04 13:22 | 43.46143 | 6.07985 | 37038 ft | 383 kts | 246° |
| 2026-05-04 13:23 | 43.44088 | 6.01218 | 37046 ft | 383 kts | 246° |
| 2026-05-04 13:23 | 43.42029 | 5.94448 | 37038 ft | 384 kts | 246° |
| 2026-05-04 13:24 | 43.39961 | 5.87663 | 37026 ft | 385 kts | 246° |
| 2026-05-04 13:24 | 43.37884 | 5.80868 | 37022 ft | 386 kts | 246° |
| 2026-05-04 13:25 | 43.34755 | 5.70659 | 37015 ft | 387 kts | 246° |
| 2026-05-04 13:25 | 43.32674 | 5.63891 | 37007 ft | 387 kts | 246° |
| 2026-05-04 13:26 | 43.30573 | 5.57078 | 37013 ft | 387 kts | 246° |
| 2026-05-04 13:26 | 43.28468 | 5.50268 | 37012 ft | 388 kts | 246° |
| 2026-05-04 13:27 | 43.26357 | 5.43454 | 37019 ft | 388 kts | 246° |
| 2026-05-04 13:27 | 43.24152 | 5.36720 | 36999 ft | 387 kts | 239° |
| 2026-05-04 13:28 | 43.20954 | 5.30769 | 37004 ft | 387 kts | 228° |
| 2026-05-04 13:28 | 43.16954 | 5.25883 | 36999 ft | 388 kts | 223° |
| 2026-05-04 13:29 | 43.12835 | 5.21117 | 37001 ft | 386 kts | 223° |
| 2026-05-04 13:29 | 43.08736 | 5.16363 | 37001 ft | 386 kts | 223° |
| 2026-05-04 13:30 | 43.04649 | 5.11608 | 37004 ft | 385 kts | 223° |
| 2026-05-04 13:30 | 43.00583 | 5.06876 | 36987 ft | 386 kts | 223° |
| 2026-05-04 13:31 | 42.96495 | 5.02124 | 36985 ft | 385 kts | 223° |
| 2026-05-04 13:31 | 42.92419 | 4.97395 | 36980 ft | 384 kts | 223° |
| 2026-05-04 13:32 | 42.88345 | 4.92676 | 36972 ft | 384 kts | 223° |
| 2026-05-04 13:32 | 42.84271 | 4.87966 | 36981 ft | 383 kts | 223° |
| 2026-05-04 13:33 | 42.80201 | 4.83268 | 36988 ft | 383 kts | 223° |
| 2026-05-04 13:33 | 42.76119 | 4.78565 | 36974 ft | 384 kts | 223° |
| 2026-05-04 13:34 | 42.72034 | 4.73868 | 36967 ft | 384 kts | 223° |
| 2026-05-04 13:34 | 42.67969 | 4.69202 | 36968 ft | 384 kts | 223° |
| 2026-05-04 13:35 | 42.61832 | 4.62173 | 36967 ft | 385 kts | 223° |
| 2026-05-04 13:36 | 42.57731 | 4.57486 | 36957 ft | 385 kts | 222° |
| 2026-05-04 13:36 | 42.53631 | 4.52808 | 36961 ft | 385 kts | 222° |
| 2026-05-04 13:37 | 42.49528 | 4.48136 | 36959 ft | 385 kts | 222° |
| 2026-05-04 13:37 | 42.45427 | 4.43473 | 36955 ft | 385 kts | 222° |
| 2026-05-04 13:38 | 42.41315 | 4.38808 | 36950 ft | 385 kts | 222° |
| 2026-05-04 13:38 | 42.37231 | 4.34180 | 36948 ft | 385 kts | 222° |
| 2026-05-04 13:39 | 42.33118 | 4.29529 | 36945 ft | 385 kts | 222° |
| 2026-05-04 13:39 | 42.29008 | 4.24890 | 36945 ft | 384 kts | 222° |
| 2026-05-04 13:40 | 42.24899 | 4.20258 | 36942 ft | 384 kts | 222° |
| 2026-05-04 13:40 | 42.20798 | 4.15643 | 36939 ft | 384 kts | 222° |
| 2026-05-04 13:41 | 42.16607 | 4.11161 | 36935 ft | 386 kts | 216° |
| 2026-05-04 13:41 | 42.11912 | 4.07663 | 36933 ft | 388 kts | 212° |
| 2026-05-04 13:42 | 42.04796 | 4.02481 | 36937 ft | 388 kts | 212° |
| 2026-05-04 13:42 | 42.00059 | 3.99007 | 36934 ft | 388 kts | 212° |
| 2026-05-04 13:43 | 41.95317 | 3.95535 | 36941 ft | 388 kts | 212° |
| 2026-05-04 13:43 | 41.90256 | 3.92863 | 36940 ft | 396 kts | 199° |
| 2026-05-04 13:44 | 41.84788 | 3.91575 | 36933 ft | 399 kts | 195° |
| 2026-05-04 13:44 | 41.79312 | 3.90339 | 36938 ft | 399 kts | 196° |
| 2026-05-04 13:45 | 41.73836 | 3.89075 | 36941 ft | 399 kts | 196° |
| 2026-05-04 13:45 | 41.68362 | 3.87802 | 36939 ft | 399 kts | 196° |
| 2026-05-04 13:46 | 41.62900 | 3.86534 | 36933 ft | 398 kts | 196° |
| 2026-05-04 13:46 | 41.60164 | 3.85900 | 36822 ft | 400 kts | 196° |
| 2026-05-04 13:46 | 41.57410 | 3.85266 | 36538 ft | 401 kts | 196° |
| 2026-05-04 13:47 | 41.54673 | 3.84642 | 36280 ft | 398 kts | 196° |
| 2026-05-04 13:47 | 41.51963 | 3.84028 | 36015 ft | 391 kts | 196° |
| 2026-05-04 13:47 | 41.49295 | 3.83423 | 35757 ft | 386 kts | 196° |
| 2026-05-04 13:47 | 41.46654 | 3.82823 | 35514 ft | 383 kts | 196° |
| 2026-05-04 13:48 | 41.44075 | 3.82235 | 35264 ft | 380 kts | 196° |
| 2026-05-04 13:48 | 41.41477 | 3.81642 | 35016 ft | 377 kts | 196° |
| 2026-05-04 13:48 | 41.38901 | 3.81036 | 34768 ft | 373 kts | 198° |
| 2026-05-04 13:48 | 41.36435 | 3.80074 | 34527 ft | 366 kts | 204° |
| 2026-05-04 13:49 | 41.34030 | 3.78984 | 34291 ft | 364 kts | 204° |
| 2026-05-04 13:49 | 41.31639 | 3.77890 | 34055 ft | 362 kts | 204° |
| 2026-05-04 13:49 | 41.29254 | 3.76803 | 33803 ft | 361 kts | 204° |
| 2026-05-04 13:49 | 41.26878 | 3.75727 | 33525 ft | 359 kts | 204° |
| 2026-05-04 13:50 | 41.24507 | 3.74692 | 33250 ft | 360 kts | 200° |
| 2026-05-04 13:50 | 41.22021 | 3.74066 | 32982 ft | 365 kts | 195° |
| 2026-05-04 13:50 | 41.19524 | 3.73573 | 32637 ft | 360 kts | 194° |
| 2026-05-04 13:50 | 41.17091 | 3.73093 | 32279 ft | 356 kts | 195° |
| 2026-05-04 13:51 | 41.14649 | 3.72605 | 31882 ft | 353 kts | 195° |
| 2026-05-04 13:51 | 41.12235 | 3.72118 | 31506 ft | 349 kts | 195° |
| 2026-05-04 13:51 | 41.09841 | 3.71632 | 31136 ft | 348 kts | 195° |
| 2026-05-04 13:51 | 41.07425 | 3.71135 | 30772 ft | 355 kts | 195° |
| 2026-05-04 13:52 | 41.02535 | 3.70130 | 29992 ft | 354 kts | 194° |
| 2026-05-04 13:52 | 41.00112 | 3.69635 | 29544 ft | 351 kts | 194° |
| 2026-05-04 13:52 | 40.97703 | 3.69144 | 29126 ft | 347 kts | 194° |
| 2026-05-04 13:53 | 40.95330 | 3.68660 | 28735 ft | 343 kts | 195° |
| 2026-05-04 13:53 | 40.92976 | 3.68180 | 28346 ft | 341 kts | 195° |
| 2026-05-04 13:53 | 40.90642 | 3.67703 | 27950 ft | 338 kts | 195° |
| 2026-05-04 13:54 | 40.85980 | 3.66747 | 27195 ft | 342 kts | 195° |
| 2026-05-04 13:54 | 40.83618 | 3.66262 | 26795 ft | 342 kts | 194° |
| 2026-05-04 13:54 | 40.78976 | 3.65318 | 26019 ft | 337 kts | 194° |
| 2026-05-04 13:55 | 40.76659 | 3.64848 | 25640 ft | 335 kts | 194° |
| 2026-05-04 13:55 | 40.72068 | 3.63915 | 24876 ft | 332 kts | 194° |
| 2026-05-04 13:55 | 40.69791 | 3.63451 | 24503 ft | 331 kts | 195° |
| 2026-05-04 13:56 | 40.67584 | 3.62670 | 24003 ft | 327 kts | 206° |
| 2026-05-04 13:56 | 40.65468 | 3.61490 | 23303 ft | 334 kts | 207° |
| 2026-05-04 13:56 | 40.61104 | 3.58983 | 21734 ft | 349 kts | 207° |
| 2026-05-04 13:57 | 40.58855 | 3.57697 | 20973 ft | 355 kts | 207° |
| 2026-05-04 13:57 | 40.56572 | 3.56399 | 20232 ft | 360 kts | 206° |
| 2026-05-04 13:58 | 40.49575 | 3.52448 | 18093 ft | 372 kts | 206° |
| 2026-05-04 13:58 | 40.44820 | 3.49779 | 16961 ft | 366 kts | 205° |
| 2026-05-04 13:58 | 40.42496 | 3.48478 | 16532 ft | 360 kts | 205° |
| 2026-05-04 13:59 | 40.40974 | 3.47626 | 16268 ft | 356 kts | 205° |
| 2026-05-04 13:59 | 40.38712 | 3.46359 | 15866 ft | 351 kts | 205° |
| 2026-05-04 13:59 | 40.34289 | 3.43884 | 15089 ft | 341 kts | 205° |
| 2026-05-04 14:00 | 40.32113 | 3.42667 | 14714 ft | 337 kts | 205° |
| 2026-05-04 14:00 | 40.27855 | 3.40287 | 13974 ft | 329 kts | 205° |
| 2026-05-04 14:00 | 40.25754 | 3.39114 | 13583 ft | 326 kts | 205° |
| 2026-05-04 14:01 | 40.23739 | 3.37990 | 13195 ft | 323 kts | 205° |
| 2026-05-04 14:01 | 40.21698 | 3.36853 | 12814 ft | 319 kts | 205° |
| 2026-05-04 14:01 | 40.17653 | 3.34601 | 12093 ft | 312 kts | 205° |
| 2026-05-04 14:02 | 40.15663 | 3.33494 | 11738 ft | 309 kts | 205° |
| 2026-05-04 14:02 | 40.13693 | 3.32398 | 11383 ft | 306 kts | 205° |
| 2026-05-04 14:02 | 40.11741 | 3.31313 | 11043 ft | 303 kts | 205° |
| 2026-05-04 14:02 | 40.09812 | 3.30243 | 10703 ft | 300 kts | 205° |
| 2026-05-04 14:03 | 40.07897 | 3.29180 | 10365 ft | 298 kts | 204° |
| 2026-05-04 14:03 | 40.06011 | 3.28134 | 10192 ft | 290 kts | 204° |
| 2026-05-04 14:03 | 40.04183 | 3.27122 | 10059 ft | 281 kts | 204° |
| 2026-05-04 14:03 | 40.02408 | 3.26139 | 9891 ft | 274 kts | 204° |
| 2026-05-04 14:04 | 39.99029 | 3.24270 | 9360 ft | 258 kts | 205° |
| 2026-05-04 14:04 | 39.97369 | 3.23351 | 9003 ft | 259 kts | 205° |
| 2026-05-04 14:04 | 39.95714 | 3.22435 | 8717 ft | 258 kts | 205° |
| 2026-05-04 14:05 | 39.92471 | 3.20643 | 8147 ft | 255 kts | 205° |
| 2026-05-04 14:05 | 39.90804 | 3.19723 | 7882 ft | 253 kts | 205° |
| 2026-05-04 14:05 | 39.89186 | 3.18830 | 7600 ft | 252 kts | 205° |
| 2026-05-04 14:06 | 39.87575 | 3.17942 | 7325 ft | 251 kts | 205° |
| 2026-05-04 14:06 | 39.85971 | 3.17058 | 7060 ft | 250 kts | 205° |
| 2026-05-04 14:06 | 39.84370 | 3.16176 | 6791 ft | 249 kts | 205° |
| 2026-05-04 14:06 | 39.82778 | 3.15299 | 6514 ft | 248 kts | 205° |
| 2026-05-04 14:07 | 39.81194 | 3.14427 | 6248 ft | 247 kts | 205° |
| 2026-05-04 14:07 | 39.79614 | 3.13559 | 5977 ft | 246 kts | 205° |
| 2026-05-04 14:07 | 39.78058 | 3.12703 | 5710 ft | 246 kts | 205° |
| 2026-05-04 14:07 | 39.76477 | 3.11834 | 5416 ft | 247 kts | 205° |
| 2026-05-04 14:08 | 39.74873 | 3.10953 | 5141 ft | 246 kts | 205° |
| 2026-05-04 14:08 | 39.73326 | 3.10105 | 4884 ft | 243 kts | 205° |
| 2026-05-04 14:08 | 39.71799 | 3.09245 | 4784 ft | 235 kts | 210° |
| 2026-05-04 14:08 | 39.70651 | 3.07839 | 4663 ft | 224 kts | 235° |
| 2026-05-04 14:09 | 39.68968 | 3.04543 | 4482 ft | 211 kts | 237° |
| 2026-05-04 14:09 | 39.68203 | 3.02952 | 4370 ft | 206 kts | 237° |
| 2026-05-04 14:10 | 39.66709 | 2.99805 | 4146 ft | 200 kts | 237° |
| 2026-05-04 14:10 | 39.65964 | 2.98233 | 3900 ft | 206 kts | 237° |
| 2026-05-04 14:10 | 39.65222 | 2.96665 | 3636 ft | 202 kts | 237° |
| 2026-05-04 14:10 | 39.64499 | 2.95137 | 3381 ft | 196 kts | 238° |
| 2026-05-04 14:11 | 39.63803 | 2.93668 | 3124 ft | 190 kts | 238° |
| 2026-05-04 14:11 | 39.62456 | 2.90818 | 2618 ft | 181 kts | 238° |
| 2026-05-04 14:11 | 39.61809 | 2.89447 | 2386 ft | 176 kts | 238° |
| 2026-05-04 14:12 | 39.61172 | 2.88104 | 2142 ft | 171 kts | 239° |
| 2026-05-04 14:12 | 39.60574 | 2.86841 | 1929 ft | 158 kts | 239° |
| 2026-05-04 14:12 | 39.59505 | 2.84572 | 1544 ft | 144 kts | 236° |
| 2026-05-04 14:13 | 39.58991 | 2.83486 | 1363 ft | 141 kts | 237° |
| 2026-05-04 14:13 | 39.58474 | 2.82392 | 1178 ft | 143 kts | 238° |
| 2026-05-04 14:13 | 39.57947 | 2.81276 | 976 ft | 145 kts | 238° |
| 2026-05-04 14:13 | 39.57438 | 2.80197 | 752 ft | 137 kts | 237° |
| 2026-05-04 14:14 | 39.56950 | 2.79161 | 559 ft | 136 kts | 237° |
| 2026-05-04 14:14 | 39.55963 | 2.77060 | 214 ft | 136 kts | 237° |
| 2026-05-04 14:14 | 39.55477 | 2.76024 | 46 ft | 133 kts | 236° |
| 2026-05-04 14:15 | 39.54751 | 2.74492 | 29 ft | 58 kts | 238° |
| 2026-05-04 14:15 | 39.54552 | 2.73934 | 29 ft | 23 kts | 267° |
| 2026-05-04 14:16 | 39.54567 | 2.73685 | 29 ft | 10 kts | 300° |
| 2026-05-04 14:16 | 39.54619 | 2.73626 | 29 ft | 10 kts | 341° |
| 2026-05-04 14:17 | 39.54705 | 2.73582 | 29 ft | 0 kts | 329° |
| 2026-05-04 14:17 | 39.54711 | 2.73578 | 29 ft | 3 kts | 329° |
| 2026-05-04 14:17 | 39.54806 | 2.73522 | 29 ft | 7 kts | 15° |
| 2026-05-04 14:18 | 39.54834 | 2.73566 | 29 ft | 5 kts | 59° |
| 2026-05-04 14:18 | 39.54837 | 2.73572 | 29 ft | 0 kts | 58° |